Time;durP1;ratioP1;P1;durP2;ratioP2;P2;SDS_P1;SDS_P2;PMS_P1;PMS_P2;Temp;Humidity;BMP_temperature;BMP_pressure;BME280_temperature;BME280_humidity;BME280_pressure;Samples;Min_cycle;Max_cycle;Signal;HPM_P1;HPM_P2
2021/01/19 00:00:17;;;;;;;5.03;4.20;;;0.30;99.90;;;;;;5071487;28;20653;-77
2021/01/19 00:02:42;;;;;;;3.83;3.53;;;0.30;99.90;;;;;;5069573;28;20229;-77
2021/01/19 00:05:08;;;;;;;4.83;3.47;;;0.30;99.90;;;;;;5079440;28;20649;-77
2021/01/19 00:07:34;;;;;;;3.53;2.97;;;0.30;99.90;;;;;;5071587;28;20218;-77
2021/01/19 00:09:59;;;;;;;5.50;3.10;;;0.30;99.90;;;;;;5069163;28;20563;-77
2021/01/19 00:12:25;;;;;;;9.00;3.57;;;0.30;99.90;;;;;;5070963;28;20217;-77
2021/01/19 00:14:51;;;;;;;4.10;3.43;;;0.30;99.90;;;;;;5063369;28;20178;-76
2021/01/19 00:17:17;;;;;;;5.70;3.20;;;0.30;99.90;;;;;;5068107;28;20182;-76
2021/01/19 00:19:42;;;;;;;3.95;2.95;;;0.30;99.90;;;;;;5067544;28;20439;-76
2021/01/19 00:22:08;;;;;;;3.77;3.33;;;0.30;99.90;;;;;;5073085;28;20186;-76
2021/01/19 00:24:34;;;;;;;6.33;3.90;;;0.30;99.90;;;;;;5072822;28;20224;-77
2021/01/19 00:26:59;;;;;;;4.53;3.03;;;0.30;99.90;;;;;;5074981;28;20186;-76
2021/01/19 00:29:25;;;;;;;4.70;3.10;;;0.30;99.90;;;;;;5072216;28;20557;-76
2021/01/19 00:31:50;;;;;;;3.07;2.53;;;0.30;99.90;;;;;;5071250;28;20580;-76
2021/01/19 00:34:16;;;;;;;4.60;3.23;;;0.30;99.90;;;;;;5070809;28;20178;-76
2021/01/19 00:36:41;;;;;;;6.40;3.83;;;0.40;99.90;;;;;;5074007;28;20192;-76
2021/01/19 00:39:08;;;;;;;4.67;3.40;;;0.40;99.90;;;;;;5071631;28;20181;-77
2021/01/19 00:41:34;;;;;;;4.97;3.85;;;0.40;99.90;;;;;;5066653;28;20189;-77
2021/01/19 00:43:59;;;;;;;7.30;3.73;;;0.40;99.90;;;;;;5072690;28;20260;-76
2021/01/19 00:46:25;;;;;;;5.97;3.80;;;0.40;99.90;;;;;;5067407;28;20247;-77
2021/01/19 00:48:50;;;;;;;4.97;3.87;;;0.40;99.90;;;;;;5067505;28;20185;-76
2021/01/19 00:51:16;;;;;;;3.80;3.17;;;0.40;99.90;;;;;;5069800;28;20304;-77
2021/01/19 00:53:42;;;;;;;5.70;3.70;;;0.40;99.90;;;;;;5070066;28;20662;-77
2021/01/19 00:56:07;;;;;;;5.67;3.60;;;0.40;99.90;;;;;;5071746;28;20213;-77
2021/01/19 00:58:33;;;;;;;6.63;4.90;;;0.50;99.90;;;;;;5071668;28;20273;-76
2021/01/19 01:00:58;;;;;;;4.77;3.47;;;0.50;99.90;;;;;;5066621;28;20311;-77
2021/01/19 01:03:24;;;;;;;6.67;4.73;;;0.50;99.90;;;;;;5074167;28;20202;-77
2021/01/19 01:05:49;;;;;;;5.90;3.97;;;0.50;99.90;;;;;;5076510;28;20182;-77
2021/01/19 01:08:15;;;;;;;4.93;3.53;;;0.40;99.90;;;;;;5074689;28;20283;-76
2021/01/19 01:10:40;;;;;;;9.53;3.50;;;0.40;99.90;;;;;;5074372;28;20181;-77
2021/01/19 01:13:06;;;;;;;6.40;3.23;;;0.40;99.90;;;;;;5071014;28;20190;-77
2021/01/19 01:15:34;;;;;;;4.23;3.83;;;0.30;99.90;;;;;;5073337;28;20633;-77
2021/01/19 01:18:00;;;;;;;4.32;3.72;;;0.30;99.90;;;;;;5064151;28;20222;-77
2021/01/19 01:20:25;;;;;;;4.03;3.07;;;0.30;99.90;;;;;;5074294;28;20261;-77
2021/01/19 01:22:52;;;;;;;4.20;3.37;;;0.20;99.90;;;;;;5075158;28;20431;-76
2021/01/19 01:25:18;;;;;;;4.75;3.05;;;0.20;99.90;;;;;;5070247;28;20200;-77
2021/01/19 01:27:45;;;;;;;5.30;4.17;;;0.10;99.90;;;;;;5075206;28;20253;-76
2021/01/19 01:30:13;;;;;;;4.13;3.67;;;0.10;99.90;;;;;;5070428;28;20174;-76
2021/01/19 01:32:43;;;;;;;4.15;3.70;;;0.00;99.90;;;;;;5073430;28;20213;-77
2021/01/19 01:35:10;;;;;;;3.50;3.10;;;0.00;99.90;;;;;;5067763;28;20181;-77
2021/01/19 01:37:42;;;;;;;4.90;2.95;;;-0.10;99.90;;;;;;5074499;28;20194;-76
2021/01/19 01:40:08;;;;;;;3.90;2.80;;;-0.20;99.90;;;;;;5074197;28;20221;-77
2021/01/19 01:42:34;;;;;;;3.53;3.17;;;-0.20;99.90;;;;;;5069519;28;20227;-76
2021/01/19 01:45:00;;;;;;;5.55;3.20;;;-0.30;99.90;;;;;;5074081;28;20186;-77
2021/01/19 01:47:28;;;;;;;3.40;3.10;;;-0.30;99.90;;;;;;5073450;28;20284;-77
2021/01/19 01:49:54;;;;;;;2.88;2.50;;;-0.30;99.90;;;;;;5066864;28;20182;-76
2021/01/19 01:52:21;;;;;;;3.53;2.78;;;-0.40;99.90;;;;;;5068816;28;20217;-77
2021/01/19 01:54:49;;;;;;;3.47;3.17;;;-0.40;99.90;;;;;;5070941;28;20178;-77
2021/01/19 01:57:16;;;;;;;3.75;3.13;;;-0.40;99.90;;;;;;5069282;28;20573;-77
2021/01/19 01:59:47;;;;;;;5.35;3.33;;;-0.40;99.90;;;;;;5069850;28;20178;-76
2021/01/19 02:02:12;;;;;;;3.33;3.03;;;-0.40;99.90;;;;;;5072506;28;20547;-76
2021/01/19 02:04:38;;;;;;;3.60;2.70;;;-0.40;99.90;;;;;;5071804;28;20192;-77
2021/01/19 02:07:12;;;;;;;2.70;2.37;;;-0.40;99.90;;;;;;5076170;28;20263;-77
2021/01/19 02:09:42;;;;;;;3.13;2.15;;;-0.40;99.90;;;;;;5062209;28;20188;-76
2021/01/19 02:12:15;;;;;;;3.25;2.95;;;-0.30;99.90;;;;;;5068827;28;20215;-77
2021/01/19 02:14:52;;;;;;;6.50;3.70;;;-0.30;99.90;;;;;;5065750;28;20556;-77
2021/01/19 02:17:23;;;;;;;4.53;3.58;;;-0.30;99.90;;;;;;5068963;28;20186;-77
2021/01/19 02:20:12;;;;;;;5.60;4.78;;;-0.20;99.90;;;;;;5072131;28;20178;-77
2021/01/19 02:23:12;;;;;;;3.97;3.03;;;-0.10;99.90;;;;;;5071004;28;20197;-77
2021/01/19 02:26:18;;;;;;;4.57;2.90;;;0.00;99.90;;;;;;5068827;28;20246;-76
2021/01/19 02:28:51;;;;;;;4.07;2.90;;;0.00;99.90;;;;;;5051202;28;20600;-77
2021/01/19 02:31:41;;;;;;;5.00;2.85;;;0.10;99.90;;;;;;5065146;28;20238;-77
2021/01/19 02:34:28;;;;;;;2.75;2.40;;;0.10;99.90;;;;;;5068642;28;20186;-77
2021/01/19 02:37:09;;;;;;;3.63;2.60;;;0.20;99.90;;;;;;5064800;28;20189;-76
2021/01/19 02:39:46;;;;;;;3.70;3.20;;;0.10;99.90;;;;;;5071948;28;20199;-76
2021/01/19 02:42:14;;;;;;;4.45;3.80;;;0.20;99.90;;;;;;5073142;28;20186;-76
2021/01/19 02:44:40;;;;;;;3.28;2.72;;;0.20;99.90;;;;;;5069943;28;20190;-76
2021/01/19 02:47:06;;;;;;;4.10;2.72;;;0.20;99.90;;;;;;5081706;28;20178;-77
2021/01/19 02:49:32;;;;;;;4.70;2.77;;;0.20;99.90;;;;;;5072903;28;20178;-76
2021/01/19 02:51:59;;;;;;;3.80;2.50;;;0.20;99.90;;;;;;5065054;28;21221;-76
2021/01/19 02:54:25;;;;;;;3.83;2.38;;;0.20;99.90;;;;;;5068955;28;20190;-76
2021/01/19 02:57:09;;;;;;;3.40;2.90;;;0.30;99.90;;;;;;5072478;28;20617;-76
2021/01/19 03:00:16;;;;;;;5.78;3.38;;;0.30;99.90;;;;;;5070771;28;20184;-76
2021/01/19 03:02:45;;;;;;;3.40;2.53;;;0.40;99.90;;;;;;5050321;28;20225;-76
2021/01/19 03:05:12;;;;;;;3.72;3.03;;;0.40;99.90;;;;;;5068424;28;20185;-76
2021/01/19 03:07:42;;;;;;;3.30;3.00;;;0.50;99.90;;;;;;5072658;28;20185;-76
2021/01/19 03:10:08;;;;;;;6.80;3.30;;;0.50;99.90;;;;;;5065116;28;20178;-76
2021/01/19 03:12:38;;;;;;;3.50;3.03;;;0.60;99.90;;;;;;5066427;28;20233;-76
2021/01/19 03:15:04;;;;;;;4.25;2.88;;;0.60;99.90;;;;;;5067263;28;20194;-76
2021/01/19 03:17:30;;;;;;;4.95;2.90;;;0.70;99.90;;;;;;5063821;28;20194;-77
2021/01/19 03:19:55;;;;;;;4.57;2.17;;;0.80;99.90;;;;;;5067292;28;20200;-76
2021/01/19 03:22:21;;;;;;;3.87;2.40;;;0.80;99.90;;;;;;5072234;28;20185;-76
2021/01/19 03:24:46;;;;;;;4.03;2.20;;;0.90;99.90;;;;;;5067519;28;20181;-77
2021/01/19 03:27:12;;;;;;;2.83;2.63;;;0.90;99.90;;;;;;5067157;28;20186;-76
2021/01/19 03:29:37;;;;;;;2.60;2.30;;;0.90;99.90;;;;;;5063829;28;20178;-77
2021/01/19 03:32:03;;;;;;;2.93;2.63;;;1.00;99.90;;;;;;5071061;28;20587;-76
2021/01/19 03:34:29;;;;;;;2.72;2.38;;;1.00;99.90;;;;;;5070285;28;20181;-76
2021/01/19 03:36:54;;;;;;;3.23;3.03;;;1.00;99.90;;;;;;5071993;28;20189;-76
2021/01/19 03:39:21;;;;;;;3.83;3.40;;;1.00;99.90;;;;;;5071613;28;20184;-76
2021/01/19 03:41:46;;;;;;;4.35;3.10;;;1.10;99.90;;;;;;5069565;28;20181;-76
2021/01/19 03:44:12;;;;;;;3.50;3.20;;;1.10;99.90;;;;;;5069121;28;20193;-77
2021/01/19 03:46:37;;;;;;;3.00;2.70;;;1.10;99.90;;;;;;5072404;28;20196;-76
2021/01/19 03:49:03;;;;;;;3.93;3.07;;;1.20;99.90;;;;;;5069794;28;20212;-77
2021/01/19 03:51:29;;;;;;;5.80;3.17;;;1.20;99.90;;;;;;5067873;28;20714;-76
2021/01/19 03:53:54;;;;;;;4.70;2.93;;;1.20;99.90;;;;;;5070681;28;20520;-76
2021/01/19 03:56:20;;;;;;;5.83;2.73;;;1.20;99.90;;;;;;5070771;28;20192;-76
2021/01/19 03:58:47;;;;;;;2.75;2.50;;;1.20;99.90;;;;;;5071618;28;20222;-76
2021/01/19 04:01:12;;;;;;;2.78;2.30;;;1.20;99.90;;;;;;5070406;28;20567;-77
2021/01/19 04:03:38;;;;;;;2.63;2.43;;;1.20;99.90;;;;;;5071253;28;20178;-77
2021/01/19 04:06:08;;;;;;;3.00;2.10;;;1.20;99.90;;;;;;5068863;28;20197;-76
2021/01/19 04:08:38;;;;;;;3.63;3.13;;;1.20;99.90;;;;;;5071577;28;20178;-77
2021/01/19 04:11:04;;;;;;;4.45;3.17;;;1.20;99.90;;;;;;5069686;28;20210;-76
2021/01/19 04:13:30;;;;;;;3.97;3.20;;;1.20;99.90;;;;;;5071532;28;20267;-77
2021/01/19 04:15:56;;;;;;;3.70;2.10;;;1.10;99.90;;;;;;5069602;28;20685;-76
2021/01/19 04:18:22;;;;;;;3.10;2.80;;;1.00;99.90;;;;;;5069903;28;20574;-76
2021/01/19 04:20:47;;;;;;;3.90;2.88;;;0.90;99.90;;;;;;5067954;28;20459;-76
2021/01/19 04:23:14;;;;;;;3.77;3.03;;;0.90;99.90;;;;;;5071862;28;20205;-76
2021/01/19 04:25:43;;;;;;;3.10;2.78;;;0.80;99.90;;;;;;5070656;28;20170;-76
2021/01/19 04:28:09;;;;;;;3.25;2.40;;;0.80;99.90;;;;;;5071866;28;20197;-76
2021/01/19 04:30:35;;;;;;;3.13;2.40;;;0.70;99.90;;;;;;5068016;28;20232;-77
2021/01/19 04:33:00;;;;;;;2.37;2.10;;;0.70;99.90;;;;;;5068636;28;20526;-76
2021/01/19 04:35:26;;;;;;;3.87;2.43;;;0.70;99.90;;;;;;5066659;28;20185;-77
2021/01/19 04:37:51;;;;;;;3.00;2.47;;;0.60;99.90;;;;;;5071407;28;20210;-76
2021/01/19 04:40:17;;;;;;;3.33;2.70;;;0.60;99.90;;;;;;5071377;28;20177;-76
2021/01/19 04:42:42;;;;;;;2.87;2.67;;;0.60;99.90;;;;;;5064560;28;20186;-76
2021/01/19 04:45:09;;;;;;;6.67;3.57;;;0.60;99.90;;;;;;5070651;28;20661;-76
2021/01/19 04:47:36;;;;;;;3.15;2.85;;;0.60;99.90;;;;;;5066724;28;20186;-76
2021/01/19 04:50:10;;;;;;;3.05;2.75;;;0.60;99.90;;;;;;5069780;28;20185;-76
2021/01/19 04:52:39;;;;;;;4.00;2.67;;;0.70;99.90;;;;;;5071412;28;20271;-77
2021/01/19 04:55:09;;;;;;;3.78;2.60;;;0.70;99.90;;;;;;5069889;28;20200;-77
2021/01/19 04:57:36;;;;;;;3.03;2.72;;;0.70;99.90;;;;;;5071299;28;20517;-77
2021/01/19 05:00:06;;;;;;;2.85;2.55;;;0.70;99.90;;;;;;5065749;28;20183;-77
2021/01/19 05:02:36;;;;;;;4.45;3.10;;;0.70;99.90;;;;;;5060584;28;20684;-76
2021/01/19 05:05:24;;;;;;;5.63;3.05;;;0.70;99.90;;;;;;5067161;28;20266;-77
2021/01/19 05:08:17;;;;;;;2.35;2.15;;;0.70;99.90;;;;;;5073842;28;20561;-76
2021/01/19 05:11:01;;;;;;;3.80;2.30;;;0.60;99.90;;;;;;5074368;28;20204;-76
2021/01/19 05:14:00;;;;;;;3.08;2.50;;;0.60;99.90;;;;;;5074561;28;20528;-77
2021/01/19 05:16:31;;;;;;;2.80;2.05;;;0.50;99.90;;;;;;5065742;28;20569;-76
2021/01/19 05:18:58;;;;;;;3.78;2.70;;;0.50;99.90;;;;;;5065805;28;20265;-76
2021/01/19 05:21:23;;;;;;;3.97;2.60;;;0.40;99.90;;;;;;5075129;28;20185;-77
2021/01/19 05:23:49;;;;;;;8.10;4.90;;;0.40;99.90;;;;;;5074608;28;20188;-77
2021/01/19 05:26:17;;;;;;;7.80;3.40;;;0.30;99.90;;;;;;5073920;28;20181;-77
2021/01/19 05:28:46;;;;;;;4.85;3.47;;;0.30;99.90;;;;;;5073813;28;20185;-77
2021/01/19 05:31:14;;;;;;;3.95;2.83;;;0.30;99.90;;;;;;5074725;28;20202;-76
2021/01/19 05:33:52;;;;;;;5.13;3.15;;;0.30;99.90;;;;;;5079685;28;20186;-77
2021/01/19 05:36:19;;;;;;;3.63;3.10;;;0.30;99.90;;;;;;5071405;28;20197;-76
2021/01/19 05:38:50;;;;;;;3.83;2.90;;;0.30;99.90;;;;;;5074505;28;20186;-76
2021/01/19 05:41:28;;;;;;;5.00;2.33;;;0.30;99.90;;;;;;5070293;28;20178;-76
2021/01/19 05:43:55;;;;;;;3.35;2.95;;;0.30;99.90;;;;;;5073560;28;20295;-76
2021/01/19 05:46:27;;;;;;;5.32;2.88;;;0.30;99.90;;;;;;5070756;28;20202;-76
2021/01/19 05:48:59;;;;;;;3.30;2.80;;;0.30;99.90;;;;;;5072396;28;20184;-76
2021/01/19 05:51:27;;;;;;;3.50;2.80;;;0.30;99.90;;;;;;5072363;28;20205;-76
2021/01/19 05:53:55;;;;;;;7.82;3.05;;;0.30;99.90;;;;;;5069507;28;20277;-77
2021/01/19 05:56:21;;;;;;;3.38;2.80;;;0.30;99.90;;;;;;5073306;28;20178;-77
2021/01/19 05:58:48;;;;;;;6.28;4.18;;;0.30;99.90;;;;;;5070186;28;20181;-76
2021/01/19 06:01:29;;;;;;;4.05;3.30;;;0.30;99.90;;;;;;5073610;28;20214;-76
2021/01/19 06:04:00;;;;;;;10.60;6.22;;;0.30;99.90;;;;;;5070931;28;20193;-77
2021/01/19 06:06:26;;;;;;;7.07;4.63;;;0.20;99.90;;;;;;5074233;28;20228;-76
2021/01/19 06:09:04;;;;;;;3.60;3.30;;;0.20;99.90;;;;;;5073528;28;20182;-76
2021/01/19 06:11:30;;;;;;;6.07;4.13;;;0.20;99.90;;;;;;5069052;28;20221;-77
2021/01/19 06:13:57;;;;;;;3.10;2.83;;;0.20;99.90;;;;;;5068341;28;20783;-74
2021/01/19 06:16:26;;;;;;;3.53;3.08;;;0.20;99.90;;;;;;5069535;28;20537;-75
2021/01/19 06:18:53;;;;;;;5.32;3.70;;;0.20;99.90;;;;;;5072577;28;20232;-75
2021/01/19 06:21:29;;;;;;;4.65;3.67;;;0.10;99.90;;;;;;5073297;28;20182;-75
2021/01/19 06:23:54;;;;;;;6.43;3.80;;;0.10;99.90;;;;;;5072135;28;20189;-75
2021/01/19 06:26:20;;;;;;;5.83;4.00;;;0.00;99.90;;;;;;5073177;28;20185;-75
2021/01/19 06:28:46;;;;;;;5.27;3.70;;;0.10;99.90;;;;;;5072953;28;20554;-75
2021/01/19 06:31:21;;;;;;;5.13;3.40;;;0.00;99.90;;;;;;5066265;28;20579;-74
2021/01/19 06:33:48;;;;;;;3.75;3.28;;;-0.10;99.90;;;;;;5078309;28;20618;-75
2021/01/19 06:36:17;;;;;;;5.30;3.88;;;-0.10;99.90;;;;;;5074692;28;20272;-75
2021/01/19 06:38:44;;;;;;;3.33;2.88;;;-0.20;99.90;;;;;;5073339;28;20186;-75
2021/01/19 06:41:15;;;;;;;4.15;3.50;;;-0.20;99.90;;;;;;5072900;28;20181;-75
2021/01/19 06:43:45;;;;;;;4.45;3.08;;;-0.30;99.90;;;;;;5072947;28;20260;-75
2021/01/19 06:46:12;;;;;;;4.80;3.60;;;-0.30;99.90;;;;;;5067448;28;20524;-74
2021/01/19 06:48:41;;;;;;;4.95;3.60;;;-0.40;99.90;;;;;;5071377;28;20226;-75
2021/01/19 06:51:10;;;;;;;6.07;4.15;;;-0.40;99.90;;;;;;5071563;28;20738;-75
2021/01/19 06:54:05;;;;;;;3.85;3.45;;;-0.40;99.90;;;;;;5071828;28;20217;-75
2021/01/19 06:56:40;;;;;;;4.72;4.32;;;-0.40;99.90;;;;;;5071695;28;20668;-75
2021/01/19 06:59:08;;;;;;;4.53;3.00;;;-0.50;99.90;;;;;;5073014;28;20639;-75
2021/01/19 07:01:43;;;;;;;4.05;3.20;;;-0.50;99.90;;;;;;5068317;28;20605;-75
2021/01/19 07:04:25;;;;;;;3.25;2.95;;;-0.60;99.90;;;;;;5070366;28;20211;-75
2021/01/19 07:07:23;;;;;;;8.18;5.15;;;-0.60;99.90;;;;;;5071933;28;20570;-75
2021/01/19 07:10:07;;;;;;;4.28;3.90;;;-0.60;99.90;;;;;;5067823;28;20261;-75
2021/01/19 07:12:38;;;;;;;4.47;4.07;;;-0.60;99.90;;;;;;5067568;28;20832;-74
2021/01/19 07:15:05;;;;;;;6.15;3.75;;;-0.70;99.90;;;;;;5070123;28;20554;-75
2021/01/19 07:18:08;;;;;;;11.52;7.05;;;-0.70;99.90;;;;;;5067535;28;20178;-75
2021/01/19 07:20:47;;;;;;;10.07;5.20;;;-0.70;99.90;;;;;;5069740;28;20220;-75
2021/01/19 07:23:44;;;;;;;3.75;3.40;;;-0.70;99.90;;;;;;5071038;28;20181;-76
2021/01/19 07:26:20;;;;;;;7.20;4.97;;;-0.70;99.90;;;;;;5071731;28;20186;-75
2021/01/19 07:28:47;;;;;;;8.90;3.42;;;-0.80;99.90;;;;;;5085305;28;20190;-74
2021/01/19 07:31:15;;;;;;;5.05;3.28;;;-0.80;99.90;;;;;;5064797;28;20202;-75
2021/01/19 07:33:43;;;;;;;4.85;3.20;;;-0.80;99.90;;;;;;5067358;28;20224;-77
2021/01/19 07:36:18;;;;;;;7.47;4.50;;;-0.80;99.90;;;;;;5064312;28;20516;-75
2021/01/19 07:38:44;;;;;;;4.55;3.58;;;-0.70;99.90;;;;;;5064361;28;20192;-75
2021/01/19 07:41:10;;;;;;;6.28;4.05;;;-0.70;99.90;;;;;;5072376;28;20607;-75
2021/01/19 07:43:37;;;;;;;6.57;3.73;;;-0.60;99.90;;;;;;5072038;28;20212;-75
2021/01/19 07:46:03;;;;;;;4.57;3.42;;;-0.50;99.90;;;;;;5072375;28;20182;-75
2021/01/19 07:48:30;;;;;;;5.07;3.80;;;-0.50;99.90;;;;;;5072022;28;20212;-75
2021/01/19 07:50:57;;;;;;;4.40;4.00;;;-0.40;99.90;;;;;;5072094;28;20293;-75
2021/01/19 07:53:23;;;;;;;5.72;4.45;;;-0.30;99.90;;;;;;5071865;28;20251;-75
2021/01/19 07:55:48;;;;;;;5.43;4.40;;;-0.20;99.90;;;;;;5072067;28;20584;-75
2021/01/19 07:58:16;;;;;;;5.47;4.77;;;-0.10;99.90;;;;;;5072145;28;20186;-75
2021/01/19 08:00:43;;;;;;;6.85;5.65;;;0.10;99.90;;;;;;5072046;28;20485;-75
2021/01/19 08:03:09;;;;;;;5.93;5.15;;;0.20;99.90;;;;;;5072340;28;20570;-75
2021/01/19 08:05:36;;;;;;;7.13;5.68;;;0.40;99.90;;;;;;5071447;28;20213;-75
2021/01/19 08:08:12;;;;;;;7.13;5.07;;;0.50;99.90;;;;;;5072076;28;20186;-75
2021/01/19 08:10:38;;;;;;;7.05;6.35;;;0.70;99.90;;;;;;5071986;28;20185;-75
2021/01/19 08:13:03;;;;;;;13.77;9.17;;;0.80;99.90;;;;;;5072131;28;20221;-75
2021/01/19 08:15:31;;;;;;;15.53;9.23;;;1.00;99.90;;;;;;5079062;28;20190;-75
2021/01/19 08:17:58;;;;;;;12.07;9.00;;;1.10;99.90;;;;;;5073430;28;20665;-75
2021/01/19 08:20:35;;;;;;;6.85;6.10;;;1.30;99.90;;;;;;5072451;28;20272;-75
2021/01/19 08:23:24;;;;;;;7.82;5.40;;;1.40;99.90;;;;;;5065538;28;20209;-75
2021/01/19 08:25:49;;;;;;;8.23;4.47;;;1.50;99.90;;;;;;5071373;28;20185;-75
2021/01/19 08:28:15;;;;;;;6.07;4.53;;;1.70;99.90;;;;;;5071850;28;20190;-75
2021/01/19 08:30:42;;;;;;;7.40;5.13;;;1.80;99.90;;;;;;5071696;28;20182;-75
2021/01/19 08:33:08;;;;;;;8.57;5.45;;;1.90;99.90;;;;;;5072076;28;20190;-76
2021/01/19 08:35:37;;;;;;;8.83;6.40;;;2.10;99.90;;;;;;5071758;28;20587;-75
2021/01/19 08:38:02;;;;;;;7.85;5.25;;;2.30;99.90;;;;;;5071948;28;20177;-75
2021/01/19 08:40:30;;;;;;;6.23;4.70;;;2.40;99.90;;;;;;5072562;28;20656;-75
2021/01/19 08:42:57;;;;;;;8.07;6.00;;;2.50;99.90;;;;;;5075771;28;20428;-75
2021/01/19 08:45:23;;;;;;;6.47;5.43;;;2.60;99.90;;;;;;5075710;28;20292;-75
2021/01/19 08:47:54;;;;;;;8.93;5.60;;;2.80;99.90;;;;;;5075273;28;20192;-75
2021/01/19 08:50:20;;;;;;;11.48;6.70;;;3.00;99.90;;;;;;5075945;28;20182;-75
2021/01/19 08:52:46;;;;;;;7.83;6.30;;;3.40;99.90;;;;;;5075544;28;20267;-75
2021/01/19 08:55:19;;;;;;;6.87;5.53;;;3.60;99.90;;;;;;5075403;28;20461;-76
2021/01/19 08:57:50;;;;;;;8.23;5.15;;;3.80;99.90;;;;;;5075221;28;20438;-75
2021/01/19 09:00:45;;;;;;;7.53;4.68;;;4.10;99.90;;;;;;5075365;28;20181;-76
2021/01/19 09:03:15;;;;;;;7.20;4.93;;;4.20;99.00;;;;;;5059296;28;20249;-75
2021/01/19 09:05:41;;;;;;;4.95;4.20;;;4.30;97.40;;;;;;5074851;28;20182;-75
2021/01/19 09:08:25;;;;;;;5.82;5.20;;;4.20;96.90;;;;;;5075205;28;20243;-75
2021/01/19 09:11:01;;;;;;;5.75;4.90;;;4.20;98.00;;;;;;5074885;28;20182;-75
2021/01/19 09:13:27;;;;;;;4.65;4.13;;;4.10;96.10;;;;;;5075077;28;20657;-75
2021/01/19 09:15:53;;;;;;;6.32;4.72;;;4.00;92.50;;;;;;5074470;28;20182;-75
2021/01/19 09:18:19;;;;;;;6.50;4.60;;;3.90;92.70;;;;;;5074690;28;20230;-75
2021/01/19 09:20:44;;;;;;;8.57;5.97;;;3.90;94.70;;;;;;5074911;28;20424;-75
2021/01/19 09:23:18;;;;;;;6.53;4.90;;;3.90;95.70;;;;;;5074601;28;20272;-75
2021/01/19 09:25:44;;;;;;;6.13;4.93;;;3.90;96.10;;;;;;5074997;28;20971;-75
2021/01/19 09:28:11;;;;;;;6.05;4.68;;;3.80;96.70;;;;;;5074577;28;20193;-75
2021/01/19 09:30:36;;;;;;;5.25;4.75;;;3.80;95.80;;;;;;5074983;28;20173;-75
2021/01/19 09:33:07;;;;;;;6.10;4.03;;;3.80;95.60;;;;;;5074583;28;20414;-75
2021/01/19 09:35:34;;;;;;;6.75;4.85;;;3.90;94.10;;;;;;5074764;28;20272;-75
2021/01/19 09:38:00;;;;;;;4.85;3.90;;;3.80;93.20;;;;;;5074603;28;20685;-75
2021/01/19 09:40:34;;;;;;;8.20;5.40;;;3.70;95.50;;;;;;5074677;28;20194;-75
2021/01/19 09:43:11;;;;;;;7.32;4.75;;;3.60;96.40;;;;;;5074713;28;20189;-75
2021/01/19 09:45:37;;;;;;;6.43;5.55;;;3.60;94.60;;;;;;5074731;28;20266;-75
2021/01/19 09:48:04;;;;;;;6.82;4.50;;;3.60;93.50;;;;;;5074333;28;20193;-75
2021/01/19 09:50:30;;;;;;;4.68;4.20;;;3.60;95.20;;;;;;5074431;28;20224;-75
2021/01/19 09:52:55;;;;;;;5.17;4.67;;;3.70;94.30;;;;;;5073601;28;20684;-76
2021/01/19 09:55:21;;;;;;;7.43;5.20;;;3.70;93.90;;;;;;5074062;28;20174;-76
2021/01/19 09:58:00;;;;;;;6.03;4.50;;;3.80;93.70;;;;;;5074380;28;20654;-75
2021/01/19 10:00:33;;;;;;;5.82;5.07;;;3.80;95.80;;;;;;5066652;28;20182;-75
2021/01/19 10:03:17;;;;;;;6.50;5.80;;;3.80;95.70;;;;;;5074232;28;20758;-75
2021/01/19 10:06:03;;;;;;;7.47;4.38;;;3.90;96.00;;;;;;5068764;28;20271;-76
2021/01/19 10:08:29;;;;;;;6.25;4.78;;;3.80;94.10;;;;;;5066554;28;20544;-75
2021/01/19 10:10:55;;;;;;;6.18;3.80;;;3.70;95.30;;;;;;5074058;28;20198;-76
2021/01/19 10:13:31;;;;;;;5.65;4.03;;;3.70;95.10;;;;;;5073949;28;20541;-75
2021/01/19 10:16:02;;;;;;;5.40;3.88;;;3.70;93.60;;;;;;5073731;28;20185;-76
2021/01/19 10:18:29;;;;;;;11.20;7.80;;;3.70;93.80;;;;;;5073832;28;20185;-76
2021/01/19 10:20:54;;;;;;;6.28;4.63;;;3.70;94.10;;;;;;5073934;28;20181;-76
2021/01/19 10:23:38;;;;;;;6.23;4.90;;;3.70;94.20;;;;;;5073462;28;20190;-76
2021/01/19 10:26:09;;;;;;;5.93;3.75;;;3.80;93.90;;;;;;5073867;28;20266;-75
2021/01/19 10:28:43;;;;;;;5.40;4.15;;;3.80;93.50;;;;;;5073911;28;20660;-76
2021/01/19 10:31:15;;;;;;;5.07;4.13;;;3.80;92.50;;;;;;5073632;28;20202;-76
2021/01/19 10:33:56;;;;;;;6.63;5.55;;;3.80;95.00;;;;;;5066194;28;20182;-76
2021/01/19 10:36:23;;;;;;;10.65;6.05;;;3.80;95.60;;;;;;5073566;28;20204;-76
2021/01/19 10:38:49;;;;;;;9.50;5.18;;;3.80;93.40;;;;;;5073761;28;20186;-76
2021/01/19 10:41:28;;;;;;;5.23;4.80;;;3.70;93.90;;;;;;5073277;28;20649;-76
2021/01/19 10:43:55;;;;;;;10.82;5.35;;;3.70;93.90;;;;;;5073341;28;20182;-76
2021/01/19 10:46:23;;;;;;;12.48;4.72;;;3.70;94.80;;;;;;5073129;28;20182;-76
2021/01/19 10:48:59;;;;;;;7.00;6.28;;;3.80;93.20;;;;;;5073544;28;20260;-76
2021/01/19 10:51:27;;;;;;;6.97;5.10;;;3.80;95.00;;;;;;5079037;28;20208;-76
2021/01/19 10:54:05;;;;;;;11.43;7.90;;;3.90;96.10;;;;;;5075739;28;20189;-76
2021/01/19 10:56:30;;;;;;;9.38;5.30;;;3.90;96.40;;;;;;5073187;28;20182;-76
2021/01/19 10:58:56;;;;;;;4.33;4.03;;;4.00;96.10;;;;;;5073356;28;20699;-75
2021/01/19 11:01:21;;;;;;;5.40;4.63;;;4.10;95.10;;;;;;5072914;28;20798;-76
2021/01/19 11:03:47;;;;;;;9.40;5.57;;;4.10;95.90;;;;;;5072178;28;20313;-76
2021/01/19 11:06:12;;;;;;;7.17;5.87;;;4.20;95.50;;;;;;5072702;28;20190;-76
2021/01/19 11:08:38;;;;;;;7.37;5.37;;;4.30;96.10;;;;;;5072928;28;20185;-76
2021/01/19 11:11:03;;;;;;;8.13;5.07;;;4.40;97.00;;;;;;5072939;28;20190;-76
2021/01/19 11:13:29;;;;;;;6.30;5.67;;;4.30;96.70;;;;;;5073049;28;20272;-76
2021/01/19 11:15:54;;;;;;;7.03;5.30;;;4.40;94.90;;;;;;5072312;28;20204;-76
2021/01/19 11:18:20;;;;;;;6.20;5.10;;;4.40;93.30;;;;;;5073053;28;20193;-76
2021/01/19 11:20:46;;;;;;;6.30;5.70;;;4.40;94.80;;;;;;5072830;28;20611;-75
2021/01/19 11:23:11;;;;;;;6.70;5.10;;;4.40;92.40;;;;;;5072381;28;20649;-75
2021/01/19 11:25:37;;;;;;;7.43;6.20;;;4.40;94.20;;;;;;5072698;28;20189;-76
2021/01/19 11:28:02;;;;;;;9.23;6.33;;;4.50;94.50;;;;;;5072492;28;20190;-76
2021/01/19 11:30:28;;;;;;;4.67;4.27;;;4.50;93.90;;;;;;5072701;28;20208;-76
2021/01/19 11:32:53;;;;;;;6.77;4.90;;;4.50;93.20;;;;;;5072261;28;20502;-76
2021/01/19 11:35:19;;;;;;;6.17;4.77;;;4.50;93.30;;;;;;5072208;28;20174;-76
2021/01/19 11:37:44;;;;;;;6.47;4.63;;;4.50;94.30;;;;;;5072322;28;20178;-76
2021/01/19 11:40:10;;;;;;;4.57;4.00;;;4.50;92.00;;;;;;5072165;28;20590;-76
2021/01/19 11:42:36;;;;;;;7.57;4.30;;;4.50;93.30;;;;;;5072458;28;20213;-75
2021/01/19 11:45:03;;;;;;;7.17;5.17;;;4.50;91.00;;;;;;5072425;28;20182;-75
2021/01/19 11:47:28;;;;;;;7.15;5.40;;;4.60;91.10;;;;;;5072192;28;20248;-75
2021/01/19 11:49:54;;;;;;;6.37;4.80;;;4.60;90.30;;;;;;5072227;28;20181;-76
2021/01/19 11:52:20;;;;;;;8.33;4.87;;;4.50;91.90;;;;;;5071845;28;20210;-76
2021/01/19 11:54:46;;;;;;;5.88;4.95;;;4.60;90.80;;;;;;5071920;28;20204;-76
2021/01/19 11:57:12;;;;;;;6.17;5.30;;;4.60;93.30;;;;;;5072317;28;20182;-76
2021/01/19 11:59:37;;;;;;;6.70;4.47;;;4.60;94.20;;;;;;5072103;28;20189;-75
2021/01/19 12:02:03;;;;;;;6.97;5.60;;;4.60;92.40;;;;;;5071893;28;20286;-76
2021/01/19 12:04:29;;;;;;;6.17;4.43;;;4.50;90.60;;;;;;5072111;28;20205;-75
2021/01/19 12:06:54;;;;;;;8.20;4.90;;;4.50;91.20;;;;;;5072128;28;20198;-76
2021/01/19 12:09:22;;;;;;;6.70;5.83;;;4.50;92.80;;;;;;5072039;28;20699;-76
2021/01/19 12:11:54;;;;;;;6.53;5.25;;;4.50;94.50;;;;;;5071859;28;20217;-75
2021/01/19 12:14:20;;;;;;;6.20;5.63;;;4.50;93.00;;;;;;5072134;28;20174;-76
2021/01/19 12:16:45;;;;;;;6.10;5.30;;;4.50;93.70;;;;;;5066585;28;20177;-75
2021/01/19 12:19:12;;;;;;;5.97;4.87;;;4.50;92.40;;;;;;5077626;28;20184;-74
2021/01/19 12:21:46;;;;;;;6.25;5.13;;;4.50;93.50;;;;;;5078519;28;20910;-74
2021/01/19 12:24:11;;;;;;;7.20;6.00;;;4.60;92.60;;;;;;5070487;28;20272;-75
2021/01/19 12:26:37;;;;;;;6.53;4.80;;;4.60;95.00;;;;;;5078455;28;20284;-74
2021/01/19 12:29:02;;;;;;;7.53;6.20;;;4.70;95.70;;;;;;5078162;28;20645;-74
2021/01/19 12:31:28;;;;;;;7.93;5.50;;;4.70;95.80;;;;;;5078567;28;20210;-74
2021/01/19 12:33:53;;;;;;;6.63;4.90;;;4.70;94.50;;;;;;5077483;28;20197;-74
2021/01/19 12:36:20;;;;;;;8.33;5.67;;;4.70;92.80;;;;;;5078221;28;20178;-74
2021/01/19 12:38:46;;;;;;;6.38;5.03;;;4.70;94.90;;;;;;5077685;28;20192;-74
2021/01/19 12:41:13;;;;;;;6.00;5.07;;;4.70;95.60;;;;;;5077584;28;20260;-75
2021/01/19 12:43:39;;;;;;;5.28;4.78;;;4.70;96.70;;;;;;5076864;28;20432;-74
2021/01/19 12:46:04;;;;;;;5.13;4.67;;;4.60;95.90;;;;;;5077979;28;20547;-75
2021/01/19 12:48:30;;;;;;;5.90;5.30;;;4.70;94.10;;;;;;5077513;28;20193;-75
2021/01/19 12:50:55;;;;;;;7.43;4.70;;;4.70;95.30;;;;;;5078440;28;20177;-74
2021/01/19 12:53:21;;;;;;;6.10;4.77;;;4.70;95.50;;;;;;5076675;28;20189;-75
2021/01/19 12:55:46;;;;;;;6.57;4.93;;;4.70;96.80;;;;;;5078033;28;20271;-75
2021/01/19 12:58:12;;;;;;;5.27;4.77;;;4.70;96.50;;;;;;5077857;28;20435;-74
2021/01/19 13:00:37;;;;;;;6.37;4.60;;;4.80;95.40;;;;;;5077233;28;20637;-75
2021/01/19 13:03:03;;;;;;;7.23;4.53;;;4.80;93.80;;;;;;5077716;28;20232;-75
2021/01/19 13:05:29;;;;;;;5.93;4.45;;;4.80;96.30;;;;;;5076112;28;20266;-75